Saint George, Maine
Current Conditions -  °F | °C
As of 9:15 PM on Friday 19 Dec 2014 (Local Time) from KRKD Reporting Station
Clear Clear  
Wind Chill: 28°   Ceiling: Unl
Heat Index: 28°   Visibility: 10mi
Dew Point: 21°   Wind: 3mph
Humidity: 74%   Direction: 330°NNW
Pressure: 30.08"   Gusts: NA
Location:  44.02°N, 69.2°W
Report Text: KRKD 200215Z AUTO 33003KT 10SM CLR M02/M06 A3008 RMK AO1
Loading
Personal Weather Stations






























Interactive Weather Map New forecast layout! Learn more

10-Day Weather Forecast

Advertisements
Track Severe Weather on mobile